sensor_id;sensor_type;location;lat;lon;timestamp;pressure;altitude;pressure_sealevel;temperature;humidity
35848;BME280;22332;51.954;20.118;2022-12-01T00:00:01;101532.66;;;2.89;74.33
35848;BME280;22332;51.954;20.118;2022-12-01T00:03:29;101534.63;;;2.88;74.31
35848;BME280;22332;51.954;20.118;2022-12-01T00:06:36;101533.94;;;2.91;74.28
35848;BME280;22332;51.954;20.118;2022-12-01T00:09:38;101536.61;;;2.95;74.50
35848;BME280;22332;51.954;20.118;2022-12-01T00:13:02;101536.23;;;2.99;74.37
35848;BME280;22332;51.954;20.118;2022-12-01T00:16:13;101536.98;;;3.05;74.45
35848;BME280;22332;51.954;20.118;2022-12-01T00:19:16;101536.83;;;3.08;74.32
35848;BME280;22332;51.954;20.118;2022-12-01T00:22:19;101537.54;;;3.08;74.52
35848;BME280;22332;51.954;20.118;2022-12-01T00:25:23;101537.91;;;3.08;74.41
35848;BME280;22332;51.954;20.118;2022-12-01T00:28:26;101538.19;;;3.06;74.49
35848;BME280;22332;51.954;20.118;2022-12-01T00:31:31;101536.77;;;3.02;74.38
35848;BME280;22332;51.954;20.118;2022-12-01T00:34:34;101536.95;;;2.98;74.44
35848;BME280;22332;51.954;20.118;2022-12-01T00:37:39;101535.35;;;2.95;74.70
35848;BME280;22332;51.954;20.118;2022-12-01T00:40:42;101534.79;;;2.92;74.61
35848;BME280;22332;51.954;20.118;2022-12-01T00:43:45;101531.13;;;2.88;74.49
35848;BME280;22332;51.954;20.118;2022-12-01T00:46:47;101529.31;;;2.85;74.61
35848;BME280;22332;51.954;20.118;2022-12-01T00:49:50;101529.23;;;2.83;74.76
35848;BME280;22332;51.954;20.118;2022-12-01T00:52:53;101528.98;;;2.81;74.89
35848;BME280;22332;51.954;20.118;2022-12-01T00:55:56;101523.43;;;2.83;74.85
35848;BME280;22332;51.954;20.118;2022-12-01T00:58:58;101519.05;;;2.87;74.95
35848;BME280;22332;51.954;20.118;2022-12-01T01:02:01;101517.40;;;2.92;74.90
35848;BME280;22332;51.954;20.118;2022-12-01T01:05:05;101515.93;;;2.97;74.91
35848;BME280;22332;51.954;20.118;2022-12-01T01:08:08;101516.77;;;2.98;74.68
35848;BME280;22332;51.954;20.118;2022-12-01T01:11:11;101514.65;;;2.98;74.94
35848;BME280;22332;51.954;20.118;2022-12-01T01:14:14;101518.39;;;2.97;74.96
35848;BME280;22332;51.954;20.118;2022-12-01T01:17:17;101515.63;;;2.96;74.93
35848;BME280;22332;51.954;20.118;2022-12-01T01:20:21;101517.98;;;2.94;74.90
35848;BME280;22332;51.954;20.118;2022-12-01T01:23:23;101514.30;;;2.94;75.02
35848;BME280;22332;51.954;20.118;2022-12-01T01:26:29;101511.27;;;2.92;74.91
35848;BME280;22332;51.954;20.118;2022-12-01T01:29:32;101510.67;;;2.89;75.23
35848;BME280;22332;51.954;20.118;2022-12-01T01:32:34;101508.47;;;2.88;75.26
35848;BME280;22332;51.954;20.118;2022-12-01T01:35:37;101508.05;;;2.85;75.26
35848;BME280;22332;51.954;20.118;2022-12-01T01:38:40;101512.68;;;2.84;75.21
35848;BME280;22332;51.954;20.118;2022-12-01T01:41:43;101507.67;;;2.86;75.43
35848;BME280;22332;51.954;20.118;2022-12-01T01:44:51;101513.05;;;2.91;75.45
35848;BME280;22332;51.954;20.118;2022-12-01T01:47:57;101510.42;;;2.94;75.40
35848;BME280;22332;51.954;20.118;2022-12-01T01:51:01;101512.48;;;2.99;75.37
35848;BME280;22332;51.954;20.118;2022-12-01T01:54:08;101509.09;;;3.01;75.51
35848;BME280;22332;51.954;20.118;2022-12-01T01:57:27;101506.78;;;3.01;75.35
35848;BME280;22332;51.954;20.118;2022-12-01T02:00:31;101502.64;;;2.99;75.40
35848;BME280;22332;51.954;20.118;2022-12-01T02:03:35;101504.15;;;2.97;75.56
35848;BME280;22332;51.954;20.118;2022-12-01T02:06:39;101501.38;;;2.96;75.55
35848;BME280;22332;51.954;20.118;2022-12-01T02:09:42;101498.51;;;2.94;75.52
35848;BME280;22332;51.954;20.118;2022-12-01T02:12:53;101496.17;;;2.91;75.54
35848;BME280;22332;51.954;20.118;2022-12-01T02:16:05;101501.01;;;2.89;75.62
35848;BME280;22332;51.954;20.118;2022-12-01T02:19:31;101498.23;;;2.89;75.76
35848;BME280;22332;51.954;20.118;2022-12-01T02:22:50;101500.16;;;2.89;75.82
35848;BME280;22332;51.954;20.118;2022-12-01T02:26:14;101500.48;;;2.89;75.72
35848;BME280;22332;51.954;20.118;2022-12-01T02:33:22;101496.20;;;2.94;76.03
35848;BME280;22332;51.954;20.118;2022-12-01T02:36:31;101493.09;;;2.97;75.95
35848;BME280;22332;51.954;20.118;2022-12-01T02:39:38;101492.30;;;2.99;75.89
35848;BME280;22332;51.954;20.118;2022-12-01T02:42:46;101489.68;;;2.98;75.91
35848;BME280;22332;51.954;20.118;2022-12-01T02:45:57;101486.94;;;2.97;75.97
35848;BME280;22332;51.954;20.118;2022-12-01T02:49:05;101486.02;;;2.94;75.94
35848;BME280;22332;51.954;20.118;2022-12-01T02:52:10;101486.38;;;2.90;76.02
35848;BME280;22332;51.954;20.118;2022-12-01T02:55:15;101486.48;;;2.88;76.06
35848;BME280;22332;51.954;20.118;2022-12-01T02:58:18;101488.34;;;2.86;76.16
35848;BME280;22332;51.954;20.118;2022-12-01T03:01:34;101487.52;;;2.81;76.30
35848;BME280;22332;51.954;20.118;2022-12-01T03:04:48;101486.79;;;2.82;76.33
35848;BME280;22332;51.954;20.118;2022-12-01T03:07:59;101483.48;;;2.85;76.32
35848;BME280;22332;51.954;20.118;2022-12-01T03:11:03;101485.20;;;2.89;76.34
35848;BME280;22332;51.954;20.118;2022-12-01T03:14:15;101484.10;;;2.93;76.55
35848;BME280;22332;51.954;20.118;2022-12-01T03:17:26;101476.91;;;2.97;76.44
35848;BME280;22332;51.954;20.118;2022-12-01T03:20:35;101477.36;;;2.99;76.39
35848;BME280;22332;51.954;20.118;2022-12-01T03:23:42;101477.53;;;2.98;76.31
35848;BME280;22332;51.954;20.118;2022-12-01T03:26:47;101478.95;;;2.98;76.50
35848;BME280;22332;51.954;20.118;2022-12-01T03:29:54;101477.73;;;2.98;76.58
35848;BME280;22332;51.954;20.118;2022-12-01T03:33:02;101477.38;;;2.94;76.39
35848;BME280;22332;51.954;20.118;2022-12-01T03:36:11;101476.84;;;2.91;76.71
35848;BME280;22332;51.954;20.118;2022-12-01T03:39:18;101480.35;;;2.87;76.77
35848;BME280;22332;51.954;20.118;2022-12-01T03:42:24;101480.89;;;2.84;76.86
35848;BME280;22332;51.954;20.118;2022-12-01T03:45:32;101474.39;;;2.80;76.89
35848;BME280;22332;51.954;20.118;2022-12-01T03:48:38;101478.98;;;2.80;76.93
35848;BME280;22332;51.954;20.118;2022-12-01T03:51:48;101478.64;;;2.83;76.96
35848;BME280;22332;51.954;20.118;2022-12-01T03:55:07;101476.45;;;2.88;76.89
35848;BME280;22332;51.954;20.118;2022-12-01T03:58:12;101476.27;;;2.92;76.85
35848;BME280;22332;51.954;20.118;2022-12-01T04:01:18;101475.92;;;2.92;77.00
35848;BME280;22332;51.954;20.118;2022-12-01T04:04:23;101478.77;;;2.91;77.08
35848;BME280;22332;51.954;20.118;2022-12-01T04:07:26;101475.08;;;2.87;76.97
35848;BME280;22332;51.954;20.118;2022-12-01T04:10:28;101477.80;;;2.85;76.95
35848;BME280;22332;51.954;20.118;2022-12-01T04:13:31;101477.74;;;2.83;77.28
35848;BME280;22332;51.954;20.118;2022-12-01T04:16:34;101477.69;;;2.81;77.23
35848;BME280;22332;51.954;20.118;2022-12-01T04:19:36;101476.60;;;2.78;77.12
35848;BME280;22332;51.954;20.118;2022-12-01T04:22:39;101477.50;;;2.77;77.29
35848;BME280;22332;51.954;20.118;2022-12-01T04:25:42;101476.54;;;2.79;77.47
35848;BME280;22332;51.954;20.118;2022-12-01T04:28:46;101476.52;;;2.83;77.48
35848;BME280;22332;51.954;20.118;2022-12-01T04:31:49;101478.73;;;2.88;77.56
35848;BME280;22332;51.954;20.118;2022-12-01T04:34:51;101482.43;;;2.92;77.25
35848;BME280;22332;51.954;20.118;2022-12-01T04:37:54;101483.42;;;2.93;77.43
35848;BME280;22332;51.954;20.118;2022-12-01T04:40:57;101483.72;;;2.94;77.46
35848;BME280;22332;51.954;20.118;2022-12-01T04:43:59;101485.39;;;2.92;77.25
35848;BME280;22332;51.954;20.118;2022-12-01T04:47:02;101486.79;;;2.89;77.40
35848;BME280;22332;51.954;20.118;2022-12-01T04:50:06;101489.34;;;2.87;77.42
35848;BME280;22332;51.954;20.118;2022-12-01T04:53:09;101492.56;;;2.86;77.41
35848;BME280;22332;51.954;20.118;2022-12-01T04:56:12;101493.62;;;2.86;77.55
35848;BME280;22332;51.954;20.118;2022-12-01T04:59:14;101490.80;;;2.82;77.50
35848;BME280;22332;51.954;20.118;2022-12-01T05:02:17;101495.76;;;2.81;77.74
35848;BME280;22332;51.954;20.118;2022-12-01T05:05:20;101493.87;;;2.84;77.55
35848;BME280;22332;51.954;20.118;2022-12-01T05:08:22;101497.23;;;2.88;77.63
35848;BME280;22332;51.954;20.118;2022-12-01T05:11:29;101497.68;;;2.88;77.48
35848;BME280;22332;51.954;20.118;2022-12-01T05:14:32;101492.20;;;2.90;77.55
35848;BME280;22332;51.954;20.118;2022-12-01T05:17:35;101486.92;;;2.89;77.48
35848;BME280;22332;51.954;20.118;2022-12-01T05:20:38;101491.75;;;2.88;77.66
35848;BME280;22332;51.954;20.118;2022-12-01T05:23:58;101492.04;;;2.86;77.61
35848;BME280;22332;51.954;20.118;2022-12-01T05:27:01;101491.75;;;2.81;77.58
35848;BME280;22332;51.954;20.118;2022-12-01T05:30:06;101492.58;;;2.78;77.72
35848;BME280;22332;51.954;20.118;2022-12-01T05:33:09;101495.20;;;2.74;77.72
35848;BME280;22332;51.954;20.118;2022-12-01T05:36:11;101498.29;;;2.72;77.78
35848;BME280;22332;51.954;20.118;2022-12-01T05:39:14;101496.27;;;2.74;77.71
35848;BME280;22332;51.954;20.118;2022-12-01T05:42:20;101498.38;;;2.78;77.88
35848;BME280;22332;51.954;20.118;2022-12-01T05:45:23;101503.90;;;2.80;77.82
35848;BME280;22332;51.954;20.118;2022-12-01T05:48:26;101500.14;;;2.82;77.79
35848;BME280;22332;51.954;20.118;2022-12-01T05:51:29;101499.56;;;2.83;77.85
35848;BME280;22332;51.954;20.118;2022-12-01T05:54:33;101498.95;;;2.81;77.91
35848;BME280;22332;51.954;20.118;2022-12-01T05:57:35;101499.46;;;2.78;77.72
35848;BME280;22332;51.954;20.118;2022-12-01T06:00:38;101492.08;;;2.73;77.97
35848;BME280;22332;51.954;20.118;2022-12-01T06:03:41;101492.14;;;2.72;78.04
35848;BME280;22332;51.954;20.118;2022-12-01T06:06:43;101492.27;;;2.69;78.02
35848;BME280;22332;51.954;20.118;2022-12-01T06:09:46;101491.23;;;2.65;78.10
35848;BME280;22332;51.954;20.118;2022-12-01T06:12:49;101494.05;;;2.61;78.08
35848;BME280;22332;51.954;20.118;2022-12-01T06:15:59;101492.34;;;2.61;78.00
35848;BME280;22332;51.954;20.118;2022-12-01T06:19:04;101493.70;;;2.61;78.08
35848;BME280;22332;51.954;20.118;2022-12-01T06:22:07;101496.16;;;2.65;78.15
35848;BME280;22332;51.954;20.118;2022-12-01T06:25:10;101490.42;;;2.68;78.17
35848;BME280;22332;51.954;20.118;2022-12-01T06:28:12;101497.59;;;2.68;78.14
35848;BME280;22332;51.954;20.118;2022-12-01T06:31:15;101500.16;;;2.66;78.02
35848;BME280;22332;51.954;20.118;2022-12-01T06:34:18;101500.29;;;2.63;78.04
35848;BME280;22332;51.954;20.118;2022-12-01T06:37:20;101503.64;;;2.63;78.22
35848;BME280;22332;51.954;20.118;2022-12-01T06:40:23;101506.61;;;2.60;78.19
35848;BME280;22332;51.954;20.118;2022-12-01T06:43:25;101510.69;;;2.55;78.22
35848;BME280;22332;51.954;20.118;2022-12-01T06:46:28;101511.77;;;2.54;78.18
35848;BME280;22332;51.954;20.118;2022-12-01T06:49:31;101512.36;;;2.57;78.28
35848;BME280;22332;51.954;20.118;2022-12-01T06:52:34;101511.31;;;2.61;78.32
35848;BME280;22332;51.954;20.118;2022-12-01T06:55:37;101514.20;;;2.66;78.43
35848;BME280;22332;51.954;20.118;2022-12-01T06:58:40;101513.38;;;2.73;78.36
35848;BME280;22332;51.954;20.118;2022-12-01T07:01:43;101511.16;;;2.75;78.34
35848;BME280;22332;51.954;20.118;2022-12-01T07:04:45;101511.02;;;2.78;78.37
35848;BME280;22332;51.954;20.118;2022-12-01T07:07:48;101512.56;;;2.79;78.11
35848;BME280;22332;51.954;20.118;2022-12-01T07:10:57;101513.39;;;2.80;78.25
35848;BME280;22332;51.954;20.118;2022-12-01T07:14:00;101513.02;;;2.80;78.20
35848;BME280;22332;51.954;20.118;2022-12-01T07:17:03;101512.70;;;2.80;78.25
35848;BME280;22332;51.954;20.118;2022-12-01T07:20:08;101513.44;;;2.79;78.18
35848;BME280;22332;51.954;20.118;2022-12-01T07:23:11;101516.77;;;2.80;78.34
35848;BME280;22332;51.954;20.118;2022-12-01T07:26:16;101520.13;;;2.83;78.19
35848;BME280;22332;51.954;20.118;2022-12-01T07:29:19;101518.73;;;2.86;78.33
35848;BME280;22332;51.954;20.118;2022-12-01T07:32:21;101522.02;;;2.91;78.23
35848;BME280;22332;51.954;20.118;2022-12-01T07:35:24;101521.28;;;2.95;78.19
35848;BME280;22332;51.954;20.118;2022-12-01T07:38:28;101523.19;;;3.00;78.24
35848;BME280;22332;51.954;20.118;2022-12-01T07:41:31;101522.53;;;3.02;78.00
35848;BME280;22332;51.954;20.118;2022-12-01T07:44:34;101522.48;;;3.04;78.00
35848;BME280;22332;51.954;20.118;2022-12-01T07:47:36;101521.84;;;3.05;78.08
35848;BME280;22332;51.954;20.118;2022-12-01T07:50:39;101522.63;;;3.08;78.13
35848;BME280;22332;51.954;20.118;2022-12-01T07:53:42;101519.51;;;3.10;78.13
35848;BME280;22332;51.954;20.118;2022-12-01T07:56:45;101518.09;;;3.11;78.01
35848;BME280;22332;51.954;20.118;2022-12-01T07:59:48;101520.63;;;3.12;78.06
35848;BME280;22332;51.954;20.118;2022-12-01T08:02:51;101522.67;;;3.14;78.12
35848;BME280;22332;51.954;20.118;2022-12-01T08:05:57;101522.35;;;3.18;78.19
35848;BME280;22332;51.954;20.118;2022-12-01T08:09:00;101526.57;;;3.25;77.96
35848;BME280;22332;51.954;20.118;2022-12-01T08:12:03;101521.22;;;3.33;77.99
35848;BME280;22332;51.954;20.118;2022-12-01T08:15:07;101522.66;;;3.40;77.73
35848;BME280;22332;51.954;20.118;2022-12-01T08:18:10;101524.02;;;3.44;77.76
35848;BME280;22332;51.954;20.118;2022-12-01T08:21:14;101528.22;;;3.48;77.72
35848;BME280;22332;51.954;20.118;2022-12-01T08:24:18;101529.77;;;3.52;77.78
35848;BME280;22332;51.954;20.118;2022-12-01T08:27:20;101532.11;;;3.55;77.66
35848;BME280;22332;51.954;20.118;2022-12-01T08:30:23;101533.41;;;3.57;77.76
35848;BME280;22332;51.954;20.118;2022-12-01T08:33:25;101531.33;;;3.53;77.63
35848;BME280;22332;51.954;20.118;2022-12-01T08:36:30;101523.78;;;3.52;77.79
35848;BME280;22332;51.954;20.118;2022-12-01T08:39:33;101529.09;;;3.56;77.86
35848;BME280;22332;51.954;20.118;2022-12-01T08:42:35;101531.31;;;3.57;77.58
35848;BME280;22332;51.954;20.118;2022-12-01T08:45:38;101533.67;;;3.55;77.63
35848;BME280;22332;51.954;20.118;2022-12-01T08:48:41;101536.69;;;3.55;77.59
35848;BME280;22332;51.954;20.118;2022-12-01T08:51:44;101536.69;;;3.59;77.70
35848;BME280;22332;51.954;20.118;2022-12-01T08:54:47;101536.45;;;3.63;77.65
35848;BME280;22332;51.954;20.118;2022-12-01T08:57:49;101540.19;;;3.66;77.62
35848;BME280;22332;51.954;20.118;2022-12-01T09:00:52;101540.88;;;3.66;77.56
35848;BME280;22332;51.954;20.118;2022-12-01T09:03:56;101536.66;;;3.66;77.55
35848;BME280;22332;51.954;20.118;2022-12-01T09:07:10;101534.67;;;3.67;77.44
35848;BME280;22332;51.954;20.118;2022-12-01T09:13:15;101539.38;;;3.68;77.33
35848;BME280;22332;51.954;20.118;2022-12-01T09:16:17;101541.02;;;3.67;77.28
35848;BME280;22332;51.954;20.118;2022-12-01T09:19:20;101536.36;;;3.65;77.44
35848;BME280;22332;51.954;20.118;2022-12-01T09:22:23;101535.27;;;3.66;77.50
35848;BME280;22332;51.954;20.118;2022-12-01T09:25:25;101527.99;;;3.67;77.51
35848;BME280;22332;51.954;20.118;2022-12-01T09:28:29;101523.21;;;3.67;77.59
35848;BME280;22332;51.954;20.118;2022-12-01T09:31:31;101523.27;;;3.63;77.43
35848;BME280;22332;51.954;20.118;2022-12-01T09:34:34;101525.27;;;3.61;77.47
35848;BME280;22332;51.954;20.118;2022-12-01T09:37:37;101523.71;;;3.61;77.58
35848;BME280;22332;51.954;20.118;2022-12-01T09:40:40;101522.80;;;3.65;77.66
35848;BME280;22332;51.954;20.118;2022-12-01T09:43:46;101521.43;;;3.71;77.49
35848;BME280;22332;51.954;20.118;2022-12-01T09:46:53;101522.45;;;3.76;77.45
35848;BME280;22332;51.954;20.118;2022-12-01T09:49:59;101523.19;;;3.75;77.47
35848;BME280;22332;51.954;20.118;2022-12-01T09:53:06;101518.45;;;3.71;77.27
35848;BME280;22332;51.954;20.118;2022-12-01T09:56:19;101520.54;;;3.65;77.29
35848;BME280;22332;51.954;20.118;2022-12-01T09:59:26;101515.25;;;3.58;77.43
35848;BME280;22332;51.954;20.118;2022-12-01T10:02:34;101515.84;;;3.53;77.58
35848;BME280;22332;51.954;20.118;2022-12-01T10:05:43;101512.25;;;3.51;77.60
35848;BME280;22332;51.954;20.118;2022-12-01T10:08:51;101507.59;;;3.49;77.69
35848;BME280;22332;51.954;20.118;2022-12-01T10:12:03;101503.85;;;3.46;77.73
35848;BME280;22332;51.954;20.118;2022-12-01T10:15:17;101501.41;;;3.46;77.70
35848;BME280;22332;51.954;20.118;2022-12-01T10:18:33;101500.99;;;3.47;77.70
35848;BME280;22332;51.954;20.118;2022-12-01T10:21:51;101503.04;;;3.56;77.61
35848;BME280;22332;51.954;20.118;2022-12-01T10:25:03;101498.17;;;3.65;77.57
35848;BME280;22332;51.954;20.118;2022-12-01T10:28:22;101495.65;;;3.69;77.39
35848;BME280;22332;51.954;20.118;2022-12-01T10:31:37;101489.98;;;3.74;77.53
35848;BME280;22332;51.954;20.118;2022-12-01T10:34:42;101483.17;;;3.83;77.48
35848;BME280;22332;51.954;20.118;2022-12-01T10:37:50;101475.59;;;3.87;77.46
35848;BME280;22332;51.954;20.118;2022-12-01T10:40:56;101472.89;;;3.88;77.31
35848;BME280;22332;51.954;20.118;2022-12-01T10:44:03;101466.73;;;3.91;77.48
35848;BME280;22332;51.954;20.118;2022-12-01T10:47:13;101465.95;;;3.97;77.55
35848;BME280;22332;51.954;20.118;2022-12-01T10:50:25;101467.79;;;3.91;77.23
35848;BME280;22332;51.954;20.118;2022-12-01T10:53:31;101464.65;;;3.80;77.46
35848;BME280;22332;51.954;20.118;2022-12-01T10:56:38;101462.34;;;3.81;77.51
35848;BME280;22332;51.954;20.118;2022-12-01T10:59:49;101461.95;;;3.78;77.36
35848;BME280;22332;51.954;20.118;2022-12-01T11:02:56;101457.15;;;3.76;77.37
35848;BME280;22332;51.954;20.118;2022-12-01T11:06:00;101453.73;;;3.74;77.41
35848;BME280;22332;51.954;20.118;2022-12-01T11:09:05;101457.88;;;3.75;77.36
35848;BME280;22332;51.954;20.118;2022-12-01T11:12:14;101459.08;;;3.79;77.41
35848;BME280;22332;51.954;20.118;2022-12-01T11:15:21;101459.64;;;3.82;77.35
35848;BME280;22332;51.954;20.118;2022-12-01T11:18:31;101460.10;;;3.83;77.11
35848;BME280;22332;51.954;20.118;2022-12-01T11:21:45;101458.23;;;3.82;77.08
35848;BME280;22332;51.954;20.118;2022-12-01T11:24:58;101460.05;;;3.81;77.21
35848;BME280;22332;51.954;20.118;2022-12-01T11:28:03;101460.20;;;3.78;77.11
35848;BME280;22332;51.954;20.118;2022-12-01T11:31:08;101458.21;;;3.75;77.03
35848;BME280;22332;51.954;20.118;2022-12-01T11:34:18;101456.20;;;3.74;77.14
35848;BME280;22332;51.954;20.118;2022-12-01T11:37:24;101457.02;;;3.74;77.17
35848;BME280;22332;51.954;20.118;2022-12-01T11:40:32;101458.48;;;3.73;76.82
35848;BME280;22332;51.954;20.118;2022-12-01T11:43:39;101457.23;;;3.74;76.85
35848;BME280;22332;51.954;20.118;2022-12-01T11:46:43;101456.43;;;3.72;76.95
35848;BME280;22332;51.954;20.118;2022-12-01T11:49:52;101455.41;;;3.69;76.81
35848;BME280;22332;51.954;20.118;2022-12-01T11:52:55;101453.07;;;3.66;76.90
35848;BME280;22332;51.954;20.118;2022-12-01T11:56:16;101446.83;;;3.68;77.01
35848;BME280;22332;51.954;20.118;2022-12-01T11:59:22;101448.15;;;3.73;76.97
35848;BME280;22332;51.954;20.118;2022-12-01T12:02:37;101444.55;;;3.78;76.86
35848;BME280;22332;51.954;20.118;2022-12-01T12:06:04;101443.13;;;3.81;76.80
35848;BME280;22332;51.954;20.118;2022-12-01T12:09:26;101440.77;;;3.79;76.69
35848;BME280;22332;51.954;20.118;2022-12-01T12:12:46;101441.33;;;3.75;76.62
35848;BME280;22332;51.954;20.118;2022-12-01T12:16:00;101438.48;;;3.72;76.61
35848;BME280;22332;51.954;20.118;2022-12-01T12:19:20;101438.70;;;3.68;76.62
35848;BME280;22332;51.954;20.118;2022-12-01T12:22:34;101437.07;;;3.63;76.62
35848;BME280;22332;51.954;20.118;2022-12-01T12:25:49;101441.28;;;3.59;76.90
35848;BME280;22332;51.954;20.118;2022-12-01T12:29:06;101438.57;;;3.57;76.83
35848;BME280;22332;51.954;20.118;2022-12-01T12:32:37;101440.06;;;3.56;76.86
35848;BME280;22332;51.954;20.118;2022-12-01T12:35:46;101438.10;;;3.49;76.96
35848;BME280;22332;51.954;20.118;2022-12-01T12:39:02;101435.83;;;3.45;77.02
35848;BME280;22332;51.954;20.118;2022-12-01T12:42:10;101435.41;;;3.47;77.08
35848;BME280;22332;51.954;20.118;2022-12-01T12:45:22;101433.44;;;3.51;76.93
35848;BME280;22332;51.954;20.118;2022-12-01T12:51:58;101432.80;;;3.57;77.16
35848;BME280;22332;51.954;20.118;2022-12-01T12:55:11;101431.45;;;3.56;77.23
35848;BME280;22332;51.954;20.118;2022-12-01T12:58:20;101429.55;;;3.55;77.13
35848;BME280;22332;51.954;20.118;2022-12-01T13:01:27;101428.87;;;3.50;77.18
35848;BME280;22332;51.954;20.118;2022-12-01T13:04:38;101430.30;;;3.47;77.10
35848;BME280;22332;51.954;20.118;2022-12-01T13:07:46;101430.10;;;3.41;77.15
35848;BME280;22332;51.954;20.118;2022-12-01T13:10:54;101428.49;;;3.30;77.12
35848;BME280;22332;51.954;20.118;2022-12-01T13:14:01;101431.04;;;3.22;77.06
35848;BME280;22332;51.954;20.118;2022-12-01T13:17:18;101430.73;;;3.17;77.13
35848;BME280;22332;51.954;20.118;2022-12-01T13:20:24;101428.42;;;3.10;77.14
35848;BME280;22332;51.954;20.118;2022-12-01T13:23:29;101426.32;;;3.07;77.36
35848;BME280;22332;51.954;20.118;2022-12-01T13:26:35;101426.42;;;3.08;77.28
35848;BME280;22332;51.954;20.118;2022-12-01T13:29:44;101430.71;;;3.10;77.43
35848;BME280;22332;51.954;20.118;2022-12-01T13:32:48;101426.24;;;3.12;77.29
35848;BME280;22332;51.954;20.118;2022-12-01T13:35:58;101423.45;;;3.15;77.20
35848;BME280;22332;51.954;20.118;2022-12-01T13:39:04;101424.63;;;3.17;77.12
35848;BME280;22332;51.954;20.118;2022-12-01T13:42:19;101428.49;;;3.12;77.18
35848;BME280;22332;51.954;20.118;2022-12-01T13:45:23;101426.05;;;3.09;77.08
35848;BME280;22332;51.954;20.118;2022-12-01T13:48:28;101425.36;;;3.05;77.12
35848;BME280;22332;51.954;20.118;2022-12-01T13:55:27;101421.11;;;2.98;77.16
35848;BME280;22332;51.954;20.118;2022-12-01T13:58:46;101425.91;;;2.98;77.42
35848;BME280;22332;51.954;20.118;2022-12-01T14:01:49;101429.29;;;2.97;77.50
35848;BME280;22332;51.954;20.118;2022-12-01T14:05:42;101433.90;;;2.99;77.39
35848;BME280;22332;51.954;20.118;2022-12-01T14:08:47;101438.52;;;3.02;77.53
35848;BME280;22332;51.954;20.118;2022-12-01T14:11:56;101433.60;;;3.05;77.39
35848;BME280;22332;51.954;20.118;2022-12-01T14:15:02;101437.29;;;3.09;77.53
35848;BME280;22332;51.954;20.118;2022-12-01T14:18:18;101439.92;;;3.09;77.34
35848;BME280;22332;51.954;20.118;2022-12-01T14:21:43;101438.16;;;3.09;77.51
35848;BME280;22332;51.954;20.118;2022-12-01T14:24:50;101437.77;;;3.10;77.33
35848;BME280;22332;51.954;20.118;2022-12-01T14:27:56;101439.75;;;3.09;77.60
35848;BME280;22332;51.954;20.118;2022-12-01T14:31:04;101435.66;;;3.07;77.47
35848;BME280;22332;51.954;20.118;2022-12-01T14:34:08;101434.77;;;3.03;77.73
35848;BME280;22332;51.954;20.118;2022-12-01T14:37:13;101434.44;;;2.99;77.59
35848;BME280;22332;51.954;20.118;2022-12-01T14:40:26;101438.48;;;2.96;77.67
35848;BME280;22332;51.954;20.118;2022-12-01T14:43:30;101434.95;;;2.92;77.69
35848;BME280;22332;51.954;20.118;2022-12-01T14:46:55;101431.11;;;2.88;77.86
35848;BME280;22332;51.954;20.118;2022-12-01T14:50:02;101426.91;;;2.88;77.78
35848;BME280;22332;51.954;20.118;2022-12-01T14:53:28;101424.04;;;2.89;77.95
35848;BME280;22332;51.954;20.118;2022-12-01T14:56:32;101419.19;;;2.94;77.83
35848;BME280;22332;51.954;20.118;2022-12-01T14:59:35;101421.38;;;3.00;77.75
35848;BME280;22332;51.954;20.118;2022-12-01T15:02:39;101419.86;;;3.02;77.81
35848;BME280;22332;51.954;20.118;2022-12-01T15:05:44;101418.95;;;3.03;77.95
35848;BME280;22332;51.954;20.118;2022-12-01T15:09:00;101417.31;;;3.01;77.87
35848;BME280;22332;51.954;20.118;2022-12-01T15:12:17;101412.96;;;3.00;77.83
35848;BME280;22332;51.954;20.118;2022-12-01T15:15:26;101413.16;;;2.95;77.96
35848;BME280;22332;51.954;20.118;2022-12-01T15:18:30;101411.83;;;2.94;78.15
35848;BME280;22332;51.954;20.118;2022-12-01T15:21:34;101413.45;;;2.93;78.23
35848;BME280;22332;51.954;20.118;2022-12-01T15:24:36;101417.99;;;2.90;78.24
35848;BME280;22332;51.954;20.118;2022-12-01T15:27:39;101421.29;;;2.87;78.12
35848;BME280;22332;51.954;20.118;2022-12-01T15:30:44;101419.42;;;2.90;78.27
35848;BME280;22332;51.954;20.118;2022-12-01T15:33:50;101418.66;;;2.95;78.10
35848;BME280;22332;51.954;20.118;2022-12-01T15:36:53;101418.26;;;2.99;78.19
35848;BME280;22332;51.954;20.118;2022-12-01T15:39:59;101414.61;;;2.99;77.87
35848;BME280;22332;51.954;20.118;2022-12-01T15:43:06;101416.92;;;2.94;77.95
35848;BME280;22332;51.954;20.118;2022-12-01T15:46:16;101414.37;;;2.89;77.75
35848;BME280;22332;51.954;20.118;2022-12-01T15:49:24;101417.54;;;2.85;77.96
35848;BME280;22332;51.954;20.118;2022-12-01T15:52:30;101419.64;;;2.82;77.80
35848;BME280;22332;51.954;20.118;2022-12-01T15:55:35;101413.96;;;2.80;78.00
35848;BME280;22332;51.954;20.118;2022-12-01T15:58:42;101418.14;;;2.77;77.83
35848;BME280;22332;51.954;20.118;2022-12-01T16:01:45;101422.05;;;2.72;77.74
35848;BME280;22332;51.954;20.118;2022-12-01T16:04:56;101420.60;;;2.69;77.73
35848;BME280;22332;51.954;20.118;2022-12-01T16:08:13;101425.32;;;2.66;77.56
35848;BME280;22332;51.954;20.118;2022-12-01T16:11:17;101425.45;;;2.66;77.08
35848;BME280;22332;51.954;20.118;2022-12-01T16:14:22;101423.34;;;2.67;76.94
35848;BME280;22332;51.954;20.118;2022-12-01T16:17:27;101424.47;;;2.69;76.82
35848;BME280;22332;51.954;20.118;2022-12-01T16:20:43;101427.77;;;2.70;76.71
35848;BME280;22332;51.954;20.118;2022-12-01T16:23:45;101420.73;;;2.70;76.66
35848;BME280;22332;51.954;20.118;2022-12-01T16:26:50;101423.55;;;2.63;76.71
35848;BME280;22332;51.954;20.118;2022-12-01T16:29:56;101422.41;;;2.61;77.02